createdAt,value
2023-03-23T15:57:53.065Z,98094.28
2023-03-23T16:00:22.879Z,98090.22
2023-03-23T16:02:57.948Z,98094.44
2023-03-23T16:05:24.912Z,98102.31
2023-03-23T16:07:51.602Z,98110.66
2023-03-23T16:10:21.639Z,98107.16
2023-03-23T16:12:48.317Z,98110.13
2023-03-23T16:15:16.183Z,98116.00
2023-03-23T16:17:43.276Z,98107.63
2023-03-23T16:20:18.880Z,98101.88
2023-03-23T16:22:46.327Z,98105.81
2023-03-23T16:25:13.812Z,98109.28
2023-03-23T16:27:42.014Z,98106.78
2023-03-23T16:30:17.841Z,98106.47
2023-03-23T16:32:44.916Z,98101.59
2023-03-23T16:35:11.550Z,98104.53
2023-03-23T16:37:38.150Z,98099.94
2023-03-23T16:40:06.022Z,98102.34
2023-03-23T16:42:32.974Z,98105.28
2023-03-23T16:44:59.486Z,98103.59
2023-03-23T16:47:26.141Z,98096.53
2023-03-23T16:49:52.923Z,98101.41
2023-03-23T16:52:19.969Z,98100.03
2023-03-23T16:54:47.124Z,98099.66
2023-03-23T16:57:13.586Z,98093.69
2023-03-23T16:59:40.179Z,98091.19
2023-03-23T17:02:07.463Z,98103.53
2023-03-23T17:04:34.862Z,98098.38
2023-03-23T17:07:01.397Z,98105.59
2023-03-23T17:09:28.515Z,98098.22
2023-03-23T17:11:55.441Z,98103.28
2023-03-23T17:14:21.910Z,98100.88
2023-03-23T17:16:48.433Z,98101.59
2023-03-23T17:19:14.871Z,98095.09
2023-03-23T17:21:41.616Z,98106.59
2023-03-23T17:24:08.499Z,98103.06
2023-03-23T17:26:35.911Z,98102.50
2023-03-23T17:29:04.005Z,98101.94
2023-03-23T17:31:30.616Z,98100.06
2023-03-23T17:33:57.029Z,98090.28
2023-03-23T17:36:23.641Z,98086.69
2023-03-23T17:38:50.842Z,98076.38
2023-03-23T17:41:17.224Z,98080.09
2023-03-23T17:43:44.060Z,98073.34
2023-03-23T17:46:10.919Z,98078.41
2023-03-23T17:48:37.478Z,98084.84
2023-03-23T17:51:05.002Z,98084.03
2023-03-23T17:53:32.633Z,98087.22
2023-03-23T17:55:59.380Z,98082.03
2023-03-23T17:58:26.055Z,98096.59
2023-03-23T18:00:55.270Z,98081.09
2023-03-23T18:03:23.266Z,98087.13
2023-03-23T18:05:50.130Z,98093.59
2023-03-23T18:08:18.252Z,98097.25
2023-03-23T18:10:44.975Z,98093.34
2023-03-23T18:13:11.860Z,98090.41
2023-03-23T18:15:38.495Z,98095.38
2023-03-23T18:18:05.732Z,98091.78
2023-03-23T18:20:33.137Z,98098.94
2023-03-23T18:22:59.635Z,98091.69
2023-03-23T18:25:28.991Z,98096.59
2023-03-23T18:27:55.473Z,98098.31
2023-03-23T18:30:22.571Z,98098.94
2023-03-23T18:32:49.654Z,98101.91
2023-03-23T18:35:16.499Z,98094.06
2023-03-23T18:37:43.141Z,98088.69
2023-03-23T18:40:10.976Z,98092.59
2023-03-23T18:42:39.893Z,98090.88
2023-03-23T18:45:07.079Z,98100.72
2023-03-23T18:47:36.408Z,98094.22
2023-03-23T18:50:03.737Z,98094.94
2023-03-23T18:52:30.248Z,98095.78
2023-03-23T18:54:58.320Z,98105.00
2023-03-23T18:57:25.502Z,98100.44
2023-03-23T18:59:52.400Z,98101.97
2023-03-23T19:02:19.838Z,98108.63
2023-03-23T19:04:47.727Z,98107.69
2023-03-23T19:07:16.096Z,98104.19
2023-03-23T19:09:43.003Z,98101.25
2023-03-23T19:12:09.940Z,98106.69
2023-03-23T19:14:37.355Z,98107.28
2023-03-23T19:17:04.249Z,98114.44
2023-03-23T19:19:30.883Z,98115.09
2023-03-23T19:21:57.326Z,98112.09
2023-03-23T19:24:23.873Z,98111.53
2023-03-23T19:26:50.459Z,98116.06
2023-03-23T19:29:26.710Z,98116.66
2023-03-23T19:31:55.019Z,98115.84
2023-03-23T19:34:21.558Z,98113.72
2023-03-23T19:36:53.778Z,98107.94
2023-03-23T19:39:24.171Z,98110.38
2023-03-23T19:41:50.934Z,98101.16
2023-03-23T19:44:17.976Z,98097.81
2023-03-23T19:46:45.405Z,98106.38
2023-03-23T19:49:12.032Z,98102.88
2023-03-23T19:51:39.705Z,98107.88
2023-03-23T19:54:06.356Z,98103.53
2023-03-23T19:56:33.907Z,98104.75
2023-03-23T19:59:01.350Z,98100.50
2023-03-23T20:01:27.894Z,98104.34
2023-03-23T20:03:57.273Z,98103.19
2023-03-23T20:06:28.715Z,98097.00
2023-03-23T20:08:56.319Z,98101.09
2023-03-23T20:11:24.506Z,98096.69
2023-03-23T20:13:51.113Z,98093.09
2023-03-23T20:16:18.632Z,98097.56
2023-03-23T20:18:46.137Z,98095.34
2023-03-23T20:21:19.666Z,98088.09
2023-03-23T20:23:47.092Z,98092.19
2023-03-23T20:26:18.489Z,98072.38
2023-03-23T20:28:48.084Z,98082.06
2023-03-23T20:31:23.126Z,98079.53
2023-03-23T20:34:00.744Z,98079.69
2023-03-23T20:36:40.606Z,98086.38
2023-03-23T20:39:10.931Z,98072.38
2023-03-23T20:41:38.208Z,98071.78
2023-03-23T20:44:06.604Z,98078.91
2023-03-23T20:46:33.919Z,98071.00
2023-03-23T20:49:00.771Z,98076.53
2023-03-23T20:51:27.277Z,98075.41
2023-03-23T20:53:53.754Z,98076.59
2023-03-23T20:56:20.290Z,98073.81
2023-03-23T20:58:47.409Z,98066.94
2023-03-23T21:01:15.729Z,98071.41
2023-03-23T21:03:42.856Z,98074.50
2023-03-23T21:06:10.343Z,98073.69
2023-03-23T21:08:39.964Z,98084.91
2023-03-23T21:11:09.294Z,98083.25
2023-03-23T21:13:37.257Z,98103.94
2023-03-23T21:16:04.897Z,98112.94
2023-03-23T21:18:31.900Z,98123.81
2023-03-23T21:20:58.791Z,98120.19
2023-03-23T21:23:25.701Z,98131.06
2023-03-23T21:25:53.356Z,98135.16
2023-03-23T21:28:19.825Z,98148.69
2023-03-23T21:30:46.728Z,98155.81
2023-03-23T21:33:13.635Z,98162.09
2023-03-23T21:35:41.145Z,98163.97
2023-03-23T21:38:09.125Z,98163.97
2023-03-23T21:40:36.116Z,98168.38
2023-03-23T21:43:02.579Z,98173.75
2023-03-23T21:45:28.985Z,98168.38
2023-03-23T21:47:55.743Z,98179.56
2023-03-23T21:50:22.611Z,98179.88
2023-03-23T21:52:49.100Z,98175.13
2023-03-23T21:55:15.935Z,98170.22
2023-03-23T21:57:42.709Z,98183.72
2023-03-23T22:00:11.068Z,98189.31
2023-03-23T22:02:37.830Z,98197.44
2023-03-23T22:05:04.425Z,98192.53
2023-03-23T22:07:31.558Z,98200.22
2023-03-23T22:09:57.984Z,98193.25
2023-03-23T22:12:24.958Z,98196.38
2023-03-23T22:14:51.412Z,98205.41
2023-03-23T22:17:18.125Z,98208.78
2023-03-23T22:19:44.492Z,98202.81
2023-03-23T22:22:10.915Z,98204.75
2023-03-23T22:24:37.424Z,98219.66
2023-03-23T22:27:04.268Z,98212.66
2023-03-23T22:29:30.699Z,98219.75
2023-03-23T22:31:57.151Z,98212.97
2023-03-23T22:34:23.493Z,98220.41
2023-03-23T22:36:51.378Z,98213.06
2023-03-23T22:39:17.964Z,98206.28
2023-03-23T22:41:44.639Z,98208.81
2023-03-23T22:44:15.276Z,98208.28
2023-03-23T22:46:42.673Z,98202.34
2023-03-23T22:49:09.579Z,98205.84
2023-03-23T22:51:35.982Z,98192.44
2023-03-23T22:54:03.825Z,98186.03
2023-03-23T22:56:30.385Z,98186.03
2023-03-23T22:58:56.861Z,98187.69
2023-03-23T23:01:23.730Z,98182.34
2023-03-23T23:03:50.578Z,98182.63
2023-03-23T23:06:19.686Z,98177.94
2023-03-23T23:08:47.370Z,98176.66
2023-03-23T23:11:17.306Z,98178.69
2023-03-23T23:13:43.894Z,98176.81
2023-03-23T23:16:11.965Z,98173.41
2023-03-23T23:18:39.544Z,98183.06
2023-03-23T23:21:10.361Z,98175.03
2023-03-23T23:23:37.059Z,98181.66
2023-03-23T23:26:04.913Z,98184.69
2023-03-23T23:28:31.394Z,98191.47
2023-03-23T23:30:58.239Z,98187.75
2023-03-23T23:33:24.688Z,98185.97
2023-03-23T23:35:51.342Z,98190.75
2023-03-23T23:38:18.080Z,98189.09
2023-03-23T23:40:46.195Z,98221.81
2023-03-23T23:43:14.911Z,98236.63
2023-03-23T23:45:41.486Z,98215.88
2023-03-23T23:48:08.824Z,98220.72
2023-03-23T23:50:35.956Z,98248.31
2023-03-23T23:53:02.457Z,98287.78
2023-03-23T23:55:29.056Z,98296.63
2023-03-23T23:57:55.913Z,98309.38
